METAR Data
IDs: Format: Raw Decoded Include TAF

Data at: 1846 UTC 25 Sep 2020

KRPD 251835Z AUTO 13012KT 10SM SCT023 SCT029 25/18 A2973 RMK AO2 T02470176
KRPD 251815Z AUTO 14010G17KT 10SM SCT020 SCT026 24/18 A2974 RMK AO2 T02380175
KRPD 251755Z AUTO 15011KT 10SM SCT014 SCT020 23/17 A2975 RMK AO2 T02310173 10231 20135
KRPD 251735Z AUTO 14011KT 10SM BKN012 21/17 A2976 RMK AO2 T02120171
KRPD 251715Z AUTO 12008KT 10SM OVC008 19/17 A2977 RMK AO2 T01910165
KRPD 251655Z AUTO 12007KT 10SM OVC006 18/16 A2978 RMK AO2 T01800163
KRPD 251635Z AUTO 12007KT 10SM OVC004 17/16 A2978 RMK AO2 T01720161
KRPD 251615Z AUTO 14007KT 10SM OVC004 17/16 A2980 RMK AO2 T01650159
KRPD 251555Z AUTO 13007KT 10SM OVC004 16/16 A2980 RMK AO2 T01580157
KRPD 251535Z AUTO 13008KT 7SM OVC002 16/16 A2981 RMK AO2 T01550155
KRPD 251515Z AUTO 13008KT 2 1/2SM BR OVC002 15/15 A2982 RMK AO2 T01500150
KRPD 251455Z AUTO 13008KT 1SM BR OVC002 15/15 A2983 RMK AO2 T01460146
KRPD 251435Z AUTO 12007KT 1/2SM FG OVC002 15/15 A2983 RMK AO2 T01450145
KRPD 251415Z AUTO 12006KT 1/4SM FG OVC002 14/14 A2984 RMK AO2 LTG DSNT NW T01420142
KRPD 251355Z AUTO 13007KT 1/4SM FG OVC002 14/14 A2984 RMK AO2 T01400140
KRPD 251335Z AUTO 13006KT 1/4SM FG OVC002 14/14 A2984 RMK AO2 T01370137
KRPD 251315Z AUTO 12005KT 1/4SM FG OVC002 14/14 A2984 RMK AO2 T01350135
KRPD 251255Z AUTO 13005KT 1/2SM FG OVC002 14/14 A2984 RMK AO2 T01350135
KRPD 251235Z AUTO 13005KT 1SM BR OVC002 14/14 A2984 RMK AO2 T01360136
KRPD 251215Z AUTO 13004KT 1 1/2SM BR OVC002 14/14 A2984 RMK AO2 T01370137
KRPD 251155Z AUTO 13004KT 1/2SM FG OVC002 14/14 A2983 RMK AO2 70007 T01350135 10145 20133
KRPD 251135Z AUTO 13004KT 1/4SM FG OVC002 13/13 A2984 RMK AO2 LTG DSNT NW T01330133
KRPD 251115Z AUTO 14003KT 1/4SM FG OVC002 14/14 A2984 RMK AO2 T01350135
KRPD 251055Z AUTO 13005KT 1/4SM FG OVC002 14/14 A2984 RMK AO2 T01360136
KRPD 251035Z AUTO 13006KT 1/4SM FG OVC002 14/14 A2984 RMK AO2 T01350135
KRPD 251015Z AUTO 12005KT M1/4SM FG OVC002 13/13 A2985 RMK AO2 T01340134
KRPD 250955Z AUTO 12004KT M1/4SM FG OVC002 14/14 A2985 RMK AO2 T01360136
KRPD 250935Z AUTO 00000KT M1/4SM FG OVC002 14/14 A2985 RMK AO2 T01390139
KRPD 250915Z AUTO 00000KT M1/4SM FG OVC002 14/14 A2985 RMK AO2 T01390139
KRPD 250855Z AUTO 14004KT M1/4SM FG OVC002 14/14 A2985 RMK AO2 T01400140
KRPD 250835Z AUTO 13004KT M1/4SM FG OVC002 14/14 A2985 RMK AO2 T01410141
KRPD 250815Z AUTO 12004KT M1/4SM FG OVC002 14/14 A2985 RMK AO2 T01440144
KRPD 250755Z AUTO 12003KT M1/4SM FG OVC002 14/14 A2986 RMK AO2 T01420142
KRPD 250735Z AUTO 12003KT M1/4SM FG OVC002 14/14 A2987 RMK AO2 T01440144
KRPD 250715Z AUTO 14003KT M1/4SM FG OVC002 14/14 A2987 RMK AO2 T01420142
KRPD 250655Z AUTO 00000KT M1/4SM FG OVC002 14/14 A2987 RMK AO2 T01410141
KRPD 250635Z AUTO 00000KT M1/4SM FG OVC002 14/14 A2987 RMK AO2 T01440144
KRPD 250615Z AUTO 00000KT M1/4SM FG OVC002 15/15 A2987 RMK AO2 T01450145
KRPD 250555Z AUTO 12004KT 1/4SM FG OVC002 14/14 A2987 RMK AO2 LTG DSNT NW T01390139 10180 20109 402400109
KRPD 250535Z AUTO 00000KT 1/4SM FG OVC002 13/13 A2988 RMK AO2 T01250125
KRPD 250515Z AUTO 00000KT M1/4SM FG OVC002 11/11 A2988 RMK AO2 T01120112
KRPD 250455Z AUTO 00000KT M1/4SM FG OVC002 12/12 A2987 RMK AO2 T01240124
KRPD 250435Z AUTO 00000KT M1/4SM FG BKN002 OVC007 12/12 A2987 RMK AO2 T01210121
KRPD 250415Z AUTO 00000KT 1 1/2SM BR BKN007 12/12 A2988 RMK AO2 VIS 1/2V4 T01200120
KRPD 250355Z AUTO 00000KT 3SM BR CLR 13/13 A2988 RMK AO2 T01260126
KRPD 250335Z AUTO 07003KT 5SM BR SCT016 14/14 A2988 RMK AO2 T01350135
KRPD 250315Z AUTO 06003KT 7SM SCT016 13/13 A2988 RMK AO2 T01270126
KRPD 250255Z AUTO 00000KT 4SM BR CLR 13/13 A2989 RMK AO2 T01340134
KRPD 250235Z AUTO 00000KT 7SM CLR 14/14 A2988 RMK AO2 T01360135
KRPD 250215Z AUTO 08004KT 10SM CLR 13/13 A2988 RMK AO2 T01320127
KRPD 250155Z AUTO 00000KT 7SM CLR 13/13 A2988 RMK AO2 T01310128
KRPD 250135Z AUTO 00000KT 10SM CLR 14/14 A2989 RMK AO2 T01410141
KRPD 250115Z AUTO 00000KT 10SM CLR 14/14 A2988 RMK AO2 T01430139
KRPD 250055Z AUTO 00000KT 10SM CLR 14/14 A2987 RMK AO2 T01440136
KRPD 250035Z AUTO 00000KT 10SM CLR 16/15 A2987 RMK AO2 T01560147
KRPD 250015Z AUTO 00000KT 10SM CLR 17/15 A2987 RMK AO2 T01700150
KRPD 242355Z AUTO 09003KT 10SM SCT036 18/15 A2987 RMK AO2 T01810152 10240 20181
KRPD 242335Z AUTO 11003KT 10SM SCT029 SCT036 19/15 A2987 RMK AO2 T01860153
KRPD 242315Z AUTO 11004KT 10SM BKN027 BKN036 20/15 A2987 RMK AO2 T01960154
KRPD 242255Z AUTO 12006KT 10SM SCT023 OVC030 21/16 A2987 RMK AO2 T02080155
KRPD 242235Z AUTO 13005KT 10SM SCT027 SCT034 BKN060 21/16 A2987 RMK AO2 T02110155
KRPD 242215Z AUTO 14004KT 10SM SCT032 BKN070 21/15 A2986 RMK AO2 T02050153
KRPD 242155Z AUTO 13005KT 10SM SCT041 SCT060 20/16 A2986 RMK AO2 T02030155
KRPD 242135Z AUTO 12008KT 10SM SCT033 BKN043 OVC050 21/15 A2986 RMK AO2 T02100147
KRPD 242115Z AUTO 10010KT 10SM SCT033 OVC055 24/15 A2985 RMK AO2 T02370150
KRPD 242055Z AUTO 09004KT 10SM SCT055 22/15 A2986 RMK AO2 T02190146
KRPD 242035Z AUTO 08005KT 10SM SCT031 SCT038 SCT046 23/14 A2985 RMK AO2 T02320144
KRPD 242015Z AUTO 12003KT 10SM SCT043 22/15 A2986 RMK AO2 T02160147
KRPD 241955Z AUTO 06006KT 10SM BKN028 BKN035 BKN043 21/15 A2986 RMK AO2 T02070150
KRPD 241935Z AUTO 03005KT 10SM BKN030 BKN040 OVC050 22/15 A2986 RMK AO2 T02200147
KRPD 241915Z AUTO 07005KT 10SM BKN028 BKN034 OVC041 24/15 A2987 RMK AO2 T02360148
KRPD 241855Z AUTO 10005KT 10SM BKN028 BKN036 BKN042 23/15 A2987 RMK AO2 T02330151
KRPD 241835Z AUTO 08005KT 10SM SCT028 BKN037 BKN046 22/15 A2987 RMK AO2 T02150146
KRPD 241815Z AUTO 05004KT 10SM SCT025 BKN033 BKN045 21/15 A2987 RMK AO2 T02130145
KRPD 241755Z AUTO 04006KT 10SM BKN025 BKN031 OVC049 21/15 A2988 RMK AO2 60007 T02130147 10229 20146
KRPD 241735Z AUTO 05005KT 10SM BKN027 BKN031 BKN042 22/15 A2989 RMK AO2 LTG DSNT S T02240148
KRPD 241715Z AUTO 13004KT 10SM SCT023 SCT034 21/15 A2989 RMK AO2 T02090147
KRPD 241655Z AUTO 05004KT 10SM SCT021 21/15 A2989 RMK AO2 T02130148
KRPD 241635Z AUTO 08007KT 10SM CLR 20/15 A2989 RMK AO2 T02040148
KRPD 241615Z AUTO 09006KT 10SM CLR 20/15 A2990 RMK AO2 LTG DSNT SE T02020152
KRPD 241555Z AUTO 06006KT 10SM CLR 19/15 A2991 RMK AO2 LTG DSNT S T01940153
KRPD 241535Z AUTO 02005KT 10SM CLR 18/15 A2990 RMK AO2 LTG DSNT S T01840153
KRPD 241515Z AUTO 03006KT 10SM CLR 18/16 A2989 RMK AO2 T01750158
KRPD 241455Z AUTO 03010KT 10SM CLR 16/15 A2989 RMK AO2 LTG DSNT S 60007 T01590150
KRPD 241435Z AUTO 02006KT 10SM SCT010 15/15 A2989 RMK AO2 LTG DSNT S T01530148
KRPD 241415Z AUTO 02004KT 10SM SCT010 15/15 A2988 RMK AO2 LTG DSNT S T01500145
KRPD 241355Z AUTO 35008KT 10SM SCT008 15/15 A2987 RMK AO2 LTG DSNT SW P0002 T01500145
KRPD 241335Z AUTO 14007KT 10SM -DZ SCT050 SCT070 SCT090 15/14 A2986 RMK AO2 P0002 T01470142
KRPD 241315Z AUTO 13010KT 7SM -RA SCT043 BKN060 OVC075 15/14 A2986 RMK AO2 P0002 T01470143
KRPD 241255Z AUTO 12005KT 5SM RA SCT060 OVC075 15/14 A2990 RMK AO2 P0005 T01470144
KRPD 241235Z AUTO 00000KT 10SM RA SCT050 BKN070 OVC095 15/14 A2992 RMK AO2 P0002 T01470142
KRPD 241215Z AUTO 21005KT 10SM RA SCT060 SCT075 OVC085 15/14 A2991 RMK AO2 LTG DSNT W P0001 T01500142
KRPD 241155Z AUTO 26009G18KT 10SM -RA OVC090 15/15 A2992 RMK AO2 LTG DSNT SW 60012 70012 T01520145 10190 20151
KRPD 241135Z AUTO 10010KT 10SM SCT075 OVC090 15/15 A2987 RMK AO2 T01520147
KRPD 241115Z AUTO 10005KT 10SM BKN075 OVC100 15/15 A2989 RMK AO2 LTG DSNT SW AND W T01520150
KRPD 241055Z AUTO 04004KT 7SM BKN065 OVC100 15/15 A2991 RMK AO2 P0001 T01520151
KRPD 241035Z AUTO 00000KT 10SM -DZ SCT044 BKN055 OVC110 15/15 A2992 RMK AO2 LTG DSNT W P0001 T01520149
KRPD 241015Z AUTO 09005KT 10SM RA SCT044 SCT055 OVC065 15/15 A2991 RMK AO2 T01530151
KRPD 240955Z AUTO 00000KT 10SM -DZ BKN060 15/15 A2991 RMK AO2 LTG DSNT W P0005 T01530147
KRPD 240935Z AUTO 01003KT 5SM -RA SCT032 SCT042 BKN060 15/15 A2992 RMK AO2 P0005 T01540148
KRPD 240915Z AUTO 00000KT 7SM RA SCT042 BKN050 OVC055 16/15 A2993 RMK AO2 LTG DSNT SW P0001 T01580147
KRPD 240855Z AUTO 35005KT 5SM -RA SCT034 SCT039 OVC048 16/15 A2993 RMK AO2 P0006 60006 T01620147
KRPD 240835Z AUTO 35004KT 7SM RA BKN046 OVC055 17/15 A2993 RMK AO2 LTG DSNT NE E AND SW P0003 T01660153
KRPD 240815Z AUTO 34007KT 10SM -TSRA SCT048 BKN055 OVC070 17/15 A2992 RMK AO2 LTG DSNT N AND NE T01730152
KRPD 240755Z AUTO 36003KT 10SM SCT048 OVC055 18/15 A2991 RMK AO2 LTG DSNT W T01750151
KRPD 240735Z AUTO 00000KT 10SM VCTS SCT046 OVC055 18/15 A2991 RMK AO2 LTG DSNT W THRU NE T01760151
KRPD 240715Z AUTO 07003KT 10SM VCTS OVC055 18/15 A2991 RMK AO2 LTG DSNT W THRU N T01830151
KRPD 240655Z AUTO 04003KT 10SM TS BKN055 OVC065 19/15 A2991 RMK AO2 LTG DSNT NW THRU NE T01850150